Time;durP1;ratioP1;P1;durP2;ratioP2;P2;SDS_P1;SDS_P2;PMS_P1;PMS_P2;Temp;Humidity;BMP_temperature;BMP_pressure;BME280_temperature;BME280_humidity;BME280_pressure;Samples;Min_cycle;Max_cycle;Signal;HPM_P1;HPM_P2
2023/08/15 01:15:33;;;;;;;15.93;11.38;;;23.10;99.90;;;;;;6242248;22;20281;-87
2023/08/15 01:25:45;;;;;;;16.30;11.68;;;23.00;99.90;;;;;;6244545;22;20201;-88
2023/08/15 01:29:17;;;;;;;;;;;;;;;;;;;;;
2023/08/15 01:36:29;;;;;;;24.48;12.90;;;22.80;99.90;;;;;;6001503;23;20283;-88
2023/08/15 01:42:12;;;;;;;16.80;12.50;;;22.70;99.90;;;;;;6263102;22;20213;-84
2023/08/15 02:00:06;;;;;;;18.80;13.50;;;22.30;99.90;;;;;;6192491;23;20267;-86
2023/08/15 02:07:59;;;;;;;18.57;13.80;;;22.10;99.90;;;;;;6039773;23;20253;-85
2023/08/15 02:58:06;;;;;;;15.23;12.90;;;21.90;99.90;;;;;;5928192;24;20551;-87
2023/08/15 03:01:36;;;;;;;19.67;12.90;;;21.90;99.90;;;;;;5780334;24;20490;-87
2023/08/15 04:01:09;;;;;;;;;;;;;;;;;;;;;
2023/08/15 04:16:31;;;;;;;;;;;;;;;;;;;;;
2023/08/15 04:59:33;;;;;;;17.17;12.23;;;22.20;99.90;;;;;;6254225;22;20182;-87
2023/08/15 05:02:56;;;;;;;18.13;12.57;;;22.40;99.90;;;;;;6230142;22;20244;-87
2023/08/15 05:17:48;;;;;;;;;;;;;;;;;;;;;
2023/08/15 05:37:02;;;;;;;15.75;12.10;;;23.30;99.90;;;;;;5886928;24;20157;-87
2023/08/15 05:40:18;;;;;;;16.50;11.70;;;23.30;99.90;;;;;;6209822;22;20206;-86
2023/08/15 05:55:04;;;;;;;15.30;11.60;;;23.60;99.90;;;;;;5984486;24;20203;-88
2023/08/15 05:59:12;;;;;;;14.35;11.75;;;23.80;99.90;;;;;;5817769;24;20196;-87
2023/08/15 06:02:11;;;;;;;13.77;11.77;;;23.90;99.90;;;;;;4870109;27;6732351;-85
2023/08/15 06:04:47;;;;;;;16.05;12.00;;;24.00;99.90;;;;;;5076104;28;20524;-85
2023/08/15 06:07:30;;;;;;;13.90;11.80;;;24.10;99.90;;;;;;5077186;28;20642;-85
2023/08/15 06:10:02;;;;;;;13.48;11.38;;;24.20;99.90;;;;;;5092448;28;20197;-85
2023/08/15 06:12:53;;;;;;;13.65;12.07;;;24.20;99.90;;;;;;5091442;28;20210;-84
2023/08/15 06:15:23;;;;;;;21.45;12.90;;;24.30;99.90;;;;;;5092717;28;20622;-84
2023/08/15 06:17:57;;;;;;;23.98;12.48;;;24.50;99.90;;;;;;5092709;28;20201;-85
2023/08/15 06:20:31;;;;;;;18.65;12.70;;;24.50;99.90;;;;;;5075568;28;20312;-85
2023/08/15 06:23:11;;;;;;;15.27;12.18;;;24.70;99.90;;;;;;5076178;28;20216;-85
2023/08/15 06:25:56;;;;;;;15.40;12.15;;;24.70;99.90;;;;;;5092745;28;20174;-84
2023/08/15 06:28:33;;;;;;;23.52;12.73;;;24.70;99.90;;;;;;5076392;28;20209;-84
2023/08/15 06:31:55;;;;;;;42.13;15.75;;;24.80;99.90;;;;;;5074585;28;20295;-86
2023/08/15 06:39:08;;;;;;;;;;;;;;;;;;;;;
2023/08/15 06:46:28;;;;;;;13.52;11.25;;;25.20;99.90;;;;;;4894900;29;20196;-85
2023/08/15 06:48:59;;;;;;;14.05;11.52;;;25.40;99.90;;;;;;5034196;22;20258;-85
2023/08/15 06:51:32;;;;;;;15.70;11.55;;;25.40;99.90;;;;;;5055522;28;20225;-87
2023/08/15 06:54:30;;;;;;;16.13;11.60;;;25.50;99.90;;;;;;5071716;28;20500;-84
2023/08/15 06:59:49;;;;;;;15.20;11.32;;;25.70;99.90;;;;;;5317158;23;20244;-84
2023/08/15 07:02:19;;;;;;;22.88;11.25;;;25.80;99.90;;;;;;4997065;28;20197;-82
2023/08/15 07:04:50;;;;;;;14.40;11.32;;;25.90;99.90;;;;;;5015047;28;20470;-79
2023/08/15 07:07:17;;;;;;;13.02;11.55;;;26.00;99.90;;;;;;5014664;28;20191;-82
2023/08/15 07:09:46;;;;;;;14.77;11.88;;;26.10;99.90;;;;;;5031811;28;20187;-79
2023/08/15 07:12:17;;;;;;;16.77;12.02;;;26.20;99.90;;;;;;5007800;28;20236;-80
2023/08/15 07:14:45;;;;;;;19.05;11.75;;;26.30;99.90;;;;;;5001619;28;20176;-80
2023/08/15 07:17:13;;;;;;;14.40;12.27;;;26.40;99.90;;;;;;5001143;28;20590;-81
2023/08/15 07:19:40;;;;;;;12.98;11.68;;;26.50;99.90;;;;;;5018371;28;20271;-80
2023/08/15 07:22:08;;;;;;;13.85;11.55;;;26.60;99.90;;;;;;5001086;28;20255;-80
2023/08/15 07:24:36;;;;;;;13.82;11.65;;;26.60;99.90;;;;;;5000510;28;20499;-80
2023/08/15 07:27:03;;;;;;;14.07;11.55;;;26.80;99.90;;;;;;5000784;28;20242;-80
2023/08/15 07:29:30;;;;;;;21.95;11.95;;;26.80;99.90;;;;;;5017447;28;20254;-81
2023/08/15 07:31:58;;;;;;;18.40;11.48;;;26.90;99.90;;;;;;5001297;28;20247;-80
2023/08/15 07:34:25;;;;;;;15.50;11.55;;;27.00;99.90;;;;;;5018063;28;20345;-81
2023/08/15 07:36:58;;;;;;;15.10;11.80;;;27.10;99.90;;;;;;4921971;29;20239;-79
2023/08/15 07:39:25;;;;;;;14.40;11.60;;;27.10;99.90;;;;;;4938572;29;20229;-80
2023/08/15 07:41:53;;;;;;;14.50;11.02;;;27.20;99.90;;;;;;4938613;29;20218;-81
2023/08/15 07:44:20;;;;;;;29.83;12.73;;;27.30;99.90;;;;;;4933574;29;20221;-79
2023/08/15 07:46:47;;;;;;;20.30;11.43;;;27.30;99.90;;;;;;4938355;29;20195;-79
2023/08/15 07:49:14;;;;;;;15.50;11.10;;;27.30;99.90;;;;;;4938219;29;20215;-79
2023/08/15 07:51:41;;;;;;;14.73;10.80;;;27.30;99.90;;;;;;4938375;29;20564;-81
2023/08/15 07:54:11;;;;;;;12.68;9.43;;;27.50;99.90;;;;;;4938123;29;20641;-82
2023/08/15 07:56:38;;;;;;;10.57;9.02;;;27.60;99.90;;;;;;4938179;29;20207;-79
2023/08/15 07:59:13;;;;;;;11.90;9.95;;;27.70;99.90;;;;;;4919200;29;20243;-81
2023/08/15 08:01:50;;;;;;;11.63;8.70;;;27.80;99.90;;;;;;5135696;23;20333;-81
2023/08/15 08:04:42;;;;;;;12.15;8.60;;;28.00;99.90;;;;;;5253080;23;21452;-79
2023/08/15 08:09:04;;;;;;;;;;;;;;;;;;;;;
2023/08/15 08:11:39;;;;;;;10.75;7.70;;;28.20;99.90;;;;;;4973493;28;20204;-84
2023/08/15 08:18:14;;;;;;;15.55;8.25;;;30.10;99.90;;;;;;5018719;23;20250;-83
2023/08/15 08:22:00;;;;;;;13.45;6.68;;;31.40;99.90;;;;;;4907284;29;20216;-82
2023/08/15 08:29:21;;;;;;;8.65;6.45;;;33.40;99.90;;;;;;4734417;30;20570;-83
2023/08/15 08:32:07;;;;;;;10.35;6.43;;;34.00;99.90;;;;;;4770879;30;20209;-82
2023/08/15 08:34:51;;;;;;;8.40;6.00;;;34.00;99.90;;;;;;4756423;30;20678;-83
2023/08/15 08:37:39;;;;;;;9.40;6.10;;;34.30;99.90;;;;;;4741716;30;20237;-83
2023/08/15 10:10:19;;;;;;;4.65;4.25;;;37.10;84.60;;;;;;4855569;24;20242;-84
2023/08/15 11:01:39;;;;;;;3.92;2.95;;;39.80;62.70;;;;;;3438395;24;20233;-87
2023/08/15 11:04:18;;;;;;;5.65;3.10;;;39.80;61.80;;;;;;4693335;30;20227;-86
2023/08/15 11:07:01;;;;;;;6.90;3.35;;;40.10;60.70;;;;;;4668713;30;20205;-84
2023/08/15 11:12:53;;;;;;;3.58;3.17;;;40.30;60.30;;;;;;4922177;24;20269;-85
2023/08/15 11:15:22;;;;;;;4.88;3.35;;;40.80;59.10;;;;;;4692801;30;20549;-83
2023/08/15 11:17:49;;;;;;;5.60;3.78;;;40.90;56.90;;;;;;4706872;30;20227;-83
2023/08/15 11:20:21;;;;;;;4.75;3.30;;;40.80;58.50;;;;;;4706840;30;20289;-84
2023/08/15 11:22:56;;;;;;;5.40;3.15;;;40.90;57.00;;;;;;4692125;30;20223;-83
2023/08/15 11:25:23;;;;;;;6.20;2.80;;;41.00;54.60;;;;;;4706728;30;20241;-82
2023/08/15 11:27:53;;;;;;;4.30;2.88;;;41.20;52.50;;;;;;4692457;30;20229;-83
2023/08/15 11:30:28;;;;;;;4.85;2.65;;;41.20;51.00;;;;;;4707513;30;20591;-82
2023/08/15 11:32:57;;;;;;;3.35;2.42;;;40.50;49.80;;;;;;4706295;30;20527;-82
2023/08/15 11:35:30;;;;;;;7.88;2.50;;;40.60;50.30;;;;;;4706127;30;20481;-81
2023/08/15 11:38:01;;;;;;;5.43;3.00;;;40.70;49.50;;;;;;4706945;30;20603;-81
2023/08/15 11:40:33;;;;;;;3.78;2.80;;;41.20;50.10;;;;;;4706673;30;20218;-82
2023/08/15 11:43:03;;;;;;;4.78;2.90;;;40.70;50.80;;;;;;4692228;30;20227;-81
2023/08/15 11:45:39;;;;;;;7.60;3.13;;;41.20;50.20;;;;;;4706379;30;20203;-84
2023/08/15 11:48:08;;;;;;;3.90;2.42;;;41.80;49.10;;;;;;4706312;30;20219;-83
2023/08/15 11:50:42;;;;;;;2.83;2.30;;;41.70;47.90;;;;;;4706137;30;20226;-83
2023/08/15 11:53:16;;;;;;;3.90;2.25;;;41.40;47.30;;;;;;4721611;30;20214;-83
2023/08/15 11:55:47;;;;;;;6.47;2.80;;;41.00;47.20;;;;;;4706282;30;20191;-83
2023/08/15 11:58:35;;;;;;;5.05;3.00;;;41.30;48.20;;;;;;4705806;30;20260;-82
2023/08/15 12:01:07;;;;;;;4.18;2.78;;;41.00;49.40;;;;;;4721759;30;20368;-83
2023/08/15 12:03:44;;;;;;;5.25;3.03;;;41.20;49.80;;;;;;4706274;30;20222;-85
2023/08/15 12:06:18;;;;;;;6.20;3.30;;;41.80;49.20;;;;;;4706579;30;20223;-84
2023/08/15 12:08:48;;;;;;;5.55;2.88;;;42.00;48.90;;;;;;4691902;30;20226;-85
2023/08/15 12:11:20;;;;;;;4.82;3.40;;;42.40;48.70;;;;;;4692117;30;20202;-84
2023/08/15 12:13:49;;;;;;;7.55;3.20;;;42.50;48.20;;;;;;4691791;30;20243;-84
2023/08/15 12:16:19;;;;;;;3.72;2.85;;;42.50;47.20;;;;;;4692151;30;20558;-86
2023/08/15 12:18:49;;;;;;;4.82;3.17;;;42.20;48.10;;;;;;4706182;30;20298;-85
2023/08/15 12:21:19;;;;;;;4.47;3.00;;;41.80;46.90;;;;;;4691649;30;20281;-84
2023/08/15 12:23:46;;;;;;;4.95;3.30;;;41.60;47.90;;;;;;4721811;30;20231;-85
2023/08/15 12:26:13;;;;;;;6.55;3.20;;;41.30;48.40;;;;;;4691640;30;20587;-86
2023/08/15 12:28:40;;;;;;;14.00;4.10;;;41.50;49.80;;;;;;4705969;30;20227;-86
2023/08/15 12:31:11;;;;;;;4.78;2.80;;;41.40;48.00;;;;;;4721920;30;20270;-86
2023/08/15 12:33:41;;;;;;;5.72;2.78;;;41.40;47.90;;;;;;4691772;30;20234;-84
2023/08/15 12:36:17;;;;;;;2.90;2.50;;;41.40;47.90;;;;;;4705724;30;20215;-84
2023/08/15 12:38:45;;;;;;;3.92;2.50;;;41.40;47.60;;;;;;4691425;30;20516;-84
2023/08/15 12:41:17;;;;;;;4.15;2.45;;;41.60;46.60;;;;;;4705256;30;20246;-85
2023/08/15 12:43:46;;;;;;;4.38;2.90;;;41.40;47.00;;;;;;4720629;30;20215;-83
2023/08/15 12:46:13;;;;;;;5.97;2.83;;;41.40;45.60;;;;;;4691276;30;20306;-83
2023/08/15 12:48:46;;;;;;;3.80;3.03;;;41.30;46.60;;;;;;4720890;30;20218;-84
2023/08/15 12:51:14;;;;;;;3.10;2.60;;;41.10;47.00;;;;;;4721346;30;20203;-83
2023/08/15 12:53:42;;;;;;;4.25;2.50;;;41.30;45.50;;;;;;4689712;30;20231;-84
2023/08/15 12:56:09;;;;;;;7.40;2.97;;;41.20;45.50;;;;;;4705527;30;20211;-83
2023/08/15 12:58:41;;;;;;;2.60;2.40;;;41.30;46.70;;;;;;4720626;30;20227;-86
2023/08/15 13:01:11;;;;;;;3.33;2.47;;;41.20;45.70;;;;;;4691512;30;20230;-84
2023/08/15 13:03:38;;;;;;;3.63;2.70;;;41.20;47.00;;;;;;4691145;30;20246;-83
2023/08/15 13:06:10;;;;;;;6.00;2.53;;;41.30;46.30;;;;;;4720984;30;20634;-85
2023/08/15 13:08:37;;;;;;;3.53;2.38;;;40.70;45.50;;;;;;4705083;30;20561;-84
2023/08/15 13:11:04;;;;;;;3.10;2.30;;;41.00;45.70;;;;;;4705152;30;20211;-84
2023/08/15 13:13:35;;;;;;;3.83;2.33;;;41.30;44.80;;;;;;4705317;30;20701;-84
2023/08/15 13:16:13;;;;;;;6.07;2.67;;;41.70;46.00;;;;;;4705790;30;20195;-84
2023/08/15 13:18:42;;;;;;;3.10;2.20;;;41.70;44.50;;;;;;4705081;30;20261;-84
2023/08/15 13:21:09;;;;;;;4.45;2.30;;;40.90;43.60;;;;;;4720470;30;20592;-84
2023/08/15 13:23:41;;;;;;;7.50;2.90;;;40.60;44.90;;;;;;4705292;30;20269;-84
2023/08/15 13:26:12;;;;;;;4.10;2.38;;;40.60;44.50;;;;;;4704707;30;20195;-84
2023/08/15 13:28:39;;;;;;;4.85;2.70;;;40.40;44.10;;;;;;4720288;30;20246;-84
2023/08/15 13:31:07;;;;;;;4.47;2.80;;;40.00;45.60;;;;;;4691014;30;20202;-85
2023/08/15 13:33:37;;;;;;;4.63;2.45;;;39.90;45.70;;;;;;4690884;30;20219;-85
2023/08/15 13:36:07;;;;;;;4.60;2.65;;;40.00;45.90;;;;;;4704797;30;20209;-85
2023/08/15 13:38:38;;;;;;;4.80;2.40;;;40.30;45.70;;;;;;4691150;30;20312;-85
2023/08/15 13:41:13;;;;;;;2.97;2.30;;;40.30;46.10;;;;;;4704195;30;20213;-86
2023/08/15 13:43:43;;;;;;;8.40;3.00;;;40.50;46.10;;;;;;4705350;30;20226;-85
2023/08/15 13:46:16;;;;;;;3.70;2.90;;;40.20;46.40;;;;;;4720824;30;20187;-86
2023/08/15 13:48:46;;;;;;;6.70;3.17;;;40.20;46.40;;;;;;4720593;30;20215;-85
2023/08/15 13:51:19;;;;;;;6.57;2.90;;;40.60;46.70;;;;;;4720724;30;20207;-86
2023/08/15 13:53:49;;;;;;;3.42;2.60;;;40.90;45.90;;;;;;4690979;30;20293;-85
2023/08/15 13:56:18;;;;;;;7.88;3.13;;;41.10;45.40;;;;;;4705436;30;20195;-86
2023/08/15 13:58:49;;;;;;;5.70;2.97;;;41.30;44.80;;;;;;4705508;30;20223;-87
2023/08/15 14:01:21;;;;;;;4.28;2.78;;;41.50;44.50;;;;;;4704866;30;20541;-86
2023/08/15 14:03:51;;;;;;;6.00;2.90;;;41.20;44.70;;;;;;4705267;30;20737;-85
2023/08/15 14:06:23;;;;;;;4.13;2.92;;;41.20;44.80;;;;;;4690760;30;20516;-86
2023/08/15 14:09:00;;;;;;;6.15;2.88;;;41.80;44.80;;;;;;4691314;30;20236;-86
2023/08/15 14:11:28;;;;;;;3.85;2.92;;;42.30;45.20;;;;;;4720834;30;20210;-86
2023/08/15 14:14:01;;;;;;;4.57;3.05;;;42.30;44.20;;;;;;4704860;30;20227;-85
2023/08/15 14:16:30;;;;;;;4.82;3.00;;;41.90;44.80;;;;;;4704749;30;20207;-83
2023/08/15 14:19:01;;;;;;;4.85;3.00;;;41.80;45.80;;;;;;4704329;30;20241;-84
2023/08/15 14:21:30;;;;;;;4.35;2.65;;;42.10;44.90;;;;;;4719659;30;20203;-83
2023/08/15 14:24:00;;;;;;;3.15;2.83;;;42.10;44.80;;;;;;4708079;30;20222;-84
2023/08/15 14:26:29;;;;;;;9.05;3.33;;;42.50;44.40;;;;;;4693793;30;20215;-84
2023/08/15 14:28:57;;;;;;;5.60;3.00;;;42.50;44.30;;;;;;4723352;30;20214;-84
2023/08/15 14:31:24;;;;;;;3.95;3.00;;;42.60;44.90;;;;;;4723280;30;20222;-84
2023/08/15 14:33:51;;;;;;;3.72;2.60;;;42.50;44.70;;;;;;4693492;30;20229;-83
2023/08/15 14:36:20;;;;;;;3.78;2.65;;;41.80;44.70;;;;;;4707586;30;20203;-83
2023/08/15 14:38:50;;;;;;;3.75;2.83;;;41.20;44.40;;;;;;4723254;30;20539;-83
2023/08/15 14:41:23;;;;;;;3.95;2.67;;;40.60;44.10;;;;;;4693856;30;20207;-83
2023/08/15 14:43:56;;;;;;;3.78;2.38;;;41.00;45.00;;;;;;4693745;30;20247;-84
2023/08/15 14:46:23;;;;;;;2.90;2.60;;;40.80;44.00;;;;;;4707706;30;20207;-84
2023/08/15 14:48:51;;;;;;;4.05;2.60;;;40.40;44.40;;;;;;4693161;30;20227;-83
2023/08/15 14:51:18;;;;;;;4.68;2.58;;;40.50;44.50;;;;;;4707169;30;20280;-82
2023/08/15 14:53:48;;;;;;;6.15;2.63;;;40.90;45.00;;;;;;4707482;30;20227;-83
2023/08/15 14:56:15;;;;;;;3.53;2.30;;;40.90;43.90;;;;;;4707293;30;20203;-85
2023/08/15 14:58:52;;;;;;;4.20;2.70;;;40.90;43.90;;;;;;4707477;30;20674;-82
2023/08/15 15:01:21;;;;;;;5.53;2.70;;;40.70;43.60;;;;;;4707138;30;20592;-83
2023/08/15 15:03:48;;;;;;;2.95;2.47;;;39.80;44.40;;;;;;4723130;30;20215;-87
2023/08/15 15:06:18;;;;;;;4.28;2.80;;;39.50;44.40;;;;;;4707887;30;20245;-86
2023/08/15 15:08:46;;;;;;;5.03;2.60;;;39.70;44.80;;;;;;4707426;30;20226;-85
2023/08/15 15:11:15;;;;;;;5.30;2.85;;;39.80;44.50;;;;;;4707307;30;20215;-86
2023/08/15 15:13:45;;;;;;;5.88;2.63;;;40.40;45.00;;;;;;4722431;30;20245;-88
2023/08/15 15:16:17;;;;;;;5.38;2.80;;;40.60;44.30;;;;;;4693314;30;20207;-87
2023/08/15 15:18:48;;;;;;;4.30;2.53;;;40.90;44.30;;;;;;4706642;30;20647;-87
2023/08/15 15:21:19;;;;;;;2.92;2.30;;;41.20;43.50;;;;;;4723698;30;20188;-85
2023/08/15 15:23:54;;;;;;;4.18;2.40;;;41.40;43.00;;;;;;4693622;30;20226;-86
2023/08/15 15:26:22;;;;;;;2.90;2.10;;;41.40;42.40;;;;;;4692373;30;20238;-86
2023/08/15 15:28:51;;;;;;;5.40;2.50;;;41.00;42.60;;;;;;4706572;30;20330;-83
2023/08/15 15:31:19;;;;;;;2.92;2.38;;;41.50;42.40;;;;;;4722539;30;20192;-85
2023/08/15 15:33:49;;;;;;;3.28;2.20;;;41.70;42.20;;;;;;4706726;30;20528;-84
2023/08/15 15:36:16;;;;;;;3.75;2.10;;;42.00;41.90;;;;;;4706440;30;20207;-85
2023/08/15 15:38:46;;;;;;;3.22;2.30;;;41.70;41.60;;;;;;4706691;30;20556;-85
2023/08/15 15:41:13;;;;;;;4.35;2.40;;;41.30;41.80;;;;;;4706516;30;20211;-84
2023/08/15 15:43:46;;;;;;;6.18;2.72;;;41.20;42.50;;;;;;4692787;30;20239;-85
2023/08/15 15:46:14;;;;;;;2.30;2.08;;;41.00;42.70;;;;;;4706981;30;20458;-86
2023/08/15 15:48:43;;;;;;;7.47;2.50;;;40.90;42.90;;;;;;4706707;30;20231;-86
2023/08/15 15:51:10;;;;;;;2.30;2.10;;;39.80;43.70;;;;;;4705963;30;20203;-84
2023/08/15 15:53:40;;;;;;;8.52;3.00;;;39.10;45.10;;;;;;4721365;30;20223;-83
2023/08/15 15:56:07;;;;;;;6.18;3.10;;;38.30;46.30;;;;;;4721440;30;20286;-83
2023/08/15 15:58:36;;;;;;;5.75;2.92;;;37.90;47.20;;;;;;4721284;30;20223;-83
2023/08/15 16:01:06;;;;;;;4.05;2.75;;;37.50;47.70;;;;;;4691784;30;20210;-86
2023/08/15 16:03:39;;;;;;;3.42;2.78;;;37.00;48.50;;;;;;4706028;30;20238;-85
2023/08/15 16:06:09;;;;;;;5.63;2.80;;;36.40;49.80;;;;;;4706286;30;20211;-85
2023/08/15 16:08:39;;;;;;;7.47;3.33;;;36.60;50.00;;;;;;4706462;30;20638;-84
2023/08/15 16:11:09;;;;;;;3.55;2.90;;;36.80;50.00;;;;;;4692134;30;20206;-86
2023/08/15 16:13:38;;;;;;;6.40;3.08;;;37.20;50.50;;;;;;4721519;30;20234;-85
2023/08/15 16:16:05;;;;;;;3.80;2.83;;;37.50;50.30;;;;;;4721370;30;20199;-84
2023/08/15 16:18:35;;;;;;;4.55;2.80;;;37.80;50.10;;;;;;4705651;30;20498;-84
2023/08/15 16:21:03;;;;;;;4.00;2.80;;;38.00;49.40;;;;;;4705998;30;20298;-85
2023/08/15 16:23:34;;;;;;;9.32;3.13;;;38.30;49.40;;;;;;4706690;30;20619;-84
2023/08/15 16:26:09;;;;;;;5.80;2.78;;;38.40;49.20;;;;;;4721711;30;20252;-84
2023/08/15 16:28:40;;;;;;;3.72;2.67;;;38.50;49.40;;;;;;4691423;30;20304;-83
2023/08/15 16:31:10;;;;;;;4.28;3.13;;;38.60;49.20;;;;;;4705518;30;20246;-84
2023/08/15 16:33:41;;;;;;;3.58;2.70;;;38.60;49.10;;;;;;4667002;30;20316;-85
2023/08/15 16:36:15;;;;;;;4.10;2.70;;;38.10;48.90;;;;;;4667281;30;20252;-85
2023/08/15 16:38:44;;;;;;;3.80;2.72;;;38.00;49.20;;;;;;4653093;30;20320;-84
2023/08/15 16:41:12;;;;;;;6.95;3.00;;;37.70;49.30;;;;;;4667134;30;20260;-85
2023/08/15 16:43:42;;;;;;;6.10;3.03;;;37.70;49.40;;;;;;4666867;30;20241;-83
2023/08/15 16:46:12;;;;;;;6.32;2.90;;;37.70;49.80;;;;;;4666209;30;20612;-85
2023/08/15 16:48:43;;;;;;;3.83;2.58;;;37.50;49.10;;;;;;4652699;30;20355;-84
2023/08/15 16:51:15;;;;;;;3.65;2.40;;;36.90;49.40;;;;;;4666863;30;20207;-84
2023/08/15 16:53:45;;;;;;;4.43;2.75;;;36.70;49.50;;;;;;4690773;30;20227;-85
2023/08/15 16:56:12;;;;;;;5.32;2.70;;;36.30;50.00;;;;;;4691414;30;20229;-84
2023/08/15 16:58:40;;;;;;;5.63;2.60;;;35.70;50.50;;;;;;4705404;30;20230;-86
2023/08/15 17:01:07;;;;;;;3.92;2.90;;;35.40;50.70;;;;;;4705304;30;20210;-85
2023/08/15 17:03:34;;;;;;;5.07;2.92;;;34.90;51.50;;;;;;4720775;30;20239;-85
2023/08/15 17:06:02;;;;;;;7.78;3.13;;;34.60;51.70;;;;;;4705013;30;20199;-88
2023/08/15 17:08:28;;;;;;;3.97;2.90;;;34.20;52.50;;;;;;4705462;30;20227;-86
2023/08/15 17:10:58;;;;;;;5.82;2.90;;;34.10;52.60;;;;;;4691288;30;20222;-86
2023/08/15 17:13:26;;;;;;;4.43;2.50;;;33.70;52.80;;;;;;4720109;30;20538;-84
2023/08/15 17:15:54;;;;;;;5.25;2.78;;;33.40;53.30;;;;;;4704927;30;20227;-86
2023/08/15 17:18:24;;;;;;;4.97;2.70;;;33.20;53.70;;;;;;4705102;30;20624;-86
2023/08/15 17:20:52;;;;;;;7.68;3.10;;;33.00;53.50;;;;;;4720332;30;20249;-85
2023/08/15 17:23:19;;;;;;;5.70;2.67;;;32.80;53.90;;;;;;4705054;30;20230;-88
2023/08/15 17:25:50;;;;;;;5.53;2.70;;;32.70;54.20;;;;;;4704728;30;20294;-86
2023/08/15 17:28:20;;;;;;;4.10;2.80;;;32.50;54.30;;;;;;4704487;30;20242;-86
2023/08/15 17:30:51;;;;;;;4.35;2.38;;;32.30;54.20;;;;;;4690953;30;20218;-86
2023/08/15 17:33:20;;;;;;;5.53;2.63;;;32.20;53.90;;;;;;4720235;30;20223;-86
2023/08/15 17:35:49;;;;;;;6.65;2.70;;;31.90;54.30;;;;;;4652205;30;20217;-85
2023/08/15 17:38:21;;;;;;;6.82;2.72;;;31.80;54.80;;;;;;4653082;30;20237;-87
2023/08/15 17:40:51;;;;;;;4.90;2.55;;;31.60;54.40;;;;;;4666562;30;20651;-86
2023/08/15 17:43:22;;;;;;;4.50;2.80;;;31.50;54.40;;;;;;4652524;30;20228;-86
2023/08/15 17:45:49;;;;;;;4.97;2.42;;;31.50;55.10;;;;;;4666197;30;20516;-86
2023/08/15 17:48:17;;;;;;;3.28;2.47;;;31.50;55.20;;;;;;4652477;30;20233;-87
2023/08/15 17:50:46;;;;;;;5.90;2.85;;;31.30;55.00;;;;;;4652017;30;20205;-87
2023/08/15 17:53:14;;;;;;;5.40;2.83;;;31.20;55.50;;;;;;4662229;30;20229;-85
2023/08/15 17:55:41;;;;;;;5.43;2.85;;;31.00;55.60;;;;;;4704523;30;20203;-85
2023/08/15 17:58:11;;;;;;;4.80;2.85;;;31.00;55.70;;;;;;4704354;30;20226;-85
2023/08/15 18:00:41;;;;;;;5.97;2.90;;;30.70;56.10;;;;;;4705267;30;20190;-85
2023/08/15 18:03:19;;;;;;;3.78;2.80;;;30.70;56.80;;;;;;4704246;30;20317;-85
2023/08/15 18:05:50;;;;;;;4.78;2.88;;;30.60;56.60;;;;;;4690861;30;20207;-86
2023/08/15 18:08:20;;;;;;;8.05;3.10;;;30.50;57.20;;;;;;4704613;30;20223;-86
2023/08/15 18:10:48;;;;;;;4.38;2.95;;;30.40;57.40;;;;;;4704382;30;20215;-85
2023/08/15 18:13:18;;;;;;;4.07;2.60;;;30.30;57.70;;;;;;4689913;30;20249;-87
2023/08/15 18:15:49;;;;;;;5.38;2.90;;;30.20;57.90;;;;;;4705016;30;20682;-87
2023/08/15 18:18:19;;;;;;;5.32;2.80;;;30.20;58.70;;;;;;4690289;30;20235;-89
2023/08/15 18:20:46;;;;;;;4.97;2.88;;;30.10;58.10;;;;;;4704906;30;20234;-85
2023/08/15 18:23:13;;;;;;;4.30;3.22;;;30.00;58.30;;;;;;4720043;30;20218;-87
2023/08/15 18:25:41;;;;;;;5.13;3.03;;;30.00;58.70;;;;;;4719828;30;20191;-86
2023/08/15 18:28:09;;;;;;;7.40;3.08;;;29.90;59.20;;;;;;4773662;24;20268;-84
2023/08/15 18:30:36;;;;;;;7.32;2.90;;;29.80;59.20;;;;;;4703178;30;20215;-87
2023/08/15 18:33:06;;;;;;;5.47;3.00;;;29.70;59.70;;;;;;4715351;30;20524;-84
2023/08/15 18:35:35;;;;;;;4.78;3.08;;;29.60;59.60;;;;;;4715498;30;20204;-85
2023/08/15 18:38:03;;;;;;;4.72;3.13;;;29.50;60.20;;;;;;4686999;30;20248;-84
2023/08/15 18:40:32;;;;;;;4.78;3.20;;;29.50;60.30;;;;;;4686509;30;20641;-84
2023/08/15 18:42:59;;;;;;;5.60;3.22;;;29.40;60.50;;;;;;4701891;30;20223;-84
2023/08/15 18:45:26;;;;;;;5.72;2.92;;;29.40;60.90;;;;;;4686412;30;20470;-86
2023/08/15 18:47:54;;;;;;;4.72;3.50;;;29.20;61.20;;;;;;4686397;30;20227;-86
2023/08/15 18:50:21;;;;;;;7.53;3.50;;;29.20;61.50;;;;;;4686796;30;20204;-88
2023/08/15 18:52:48;;;;;;;5.72;3.20;;;29.10;61.50;;;;;;4686429;30;20583;-88
2023/08/15 18:55:15;;;;;;;4.65;3.30;;;29.10;61.80;;;;;;4687091;30;20588;-90
2023/08/15 18:57:45;;;;;;;4.85;3.30;;;29.00;62.40;;;;;;4702965;30;20215;-88
2023/08/15 19:00:17;;;;;;;5.47;3.30;;;29.00;62.30;;;;;;4703140;30;20474;-87
2023/08/15 19:02:48;;;;;;;4.97;3.30;;;29.00;62.60;;;;;;4634730;30;20558;-89
2023/08/15 19:05:15;;;;;;;5.50;3.45;;;28.90;62.80;;;;;;4649372;30;20210;-88
2023/08/15 19:07:47;;;;;;;5.47;3.30;;;28.90;63.20;;;;;;4649923;30;20226;-87
2023/08/15 19:10:17;;;;;;;4.38;3.30;;;28.90;63.40;;;;;;4638696;30;20212;-89
2023/08/15 19:12:47;;;;;;;7.30;3.45;;;28.90;63.60;;;;;;4638584;30;20254;-89
2023/08/15 19:15:18;;;;;;;4.63;3.47;;;28.80;64.10;;;;;;4652865;30;20217;-90
2023/08/15 19:17:52;;;;;;;7.22;4.28;;;28.80;64.40;;;;;;4653215;30;20238;-89
2023/08/15 19:20:25;;;;;;;6.63;3.80;;;28.60;64.90;;;;;;4651179;30;20211;-89
2023/08/15 19:22:54;;;;;;;6.85;3.70;;;28.60;65.20;;;;;;4705389;30;20224;-89
2023/08/15 19:25:29;;;;;;;7.22;3.60;;;28.60;65.60;;;;;;4691125;30;20207;-87
2023/08/15 19:28:01;;;;;;;5.68;3.65;;;28.40;65.60;;;;;;4701613;30;20239;-90
2023/08/15 19:30:31;;;;;;;6.32;3.83;;;28.50;66.00;;;;;;4689682;30;20196;-88
2023/08/15 19:33:02;;;;;;;5.85;3.53;;;28.50;66.30;;;;;;4689519;30;20216;-90
2023/08/15 19:35:35;;;;;;;9.35;3.88;;;28.40;66.50;;;;;;4673331;30;20213;-90
2023/08/15 19:38:05;;;;;;;6.53;3.88;;;28.30;66.90;;;;;;4688696;30;20656;-90
2023/08/15 19:40:36;;;;;;;6.93;3.70;;;28.30;68.70;;;;;;4688821;30;20255;-89
2023/08/15 19:43:06;;;;;;;5.93;4.03;;;28.20;68.20;;;;;;4673246;30;20223;-90
2023/08/15 19:45:39;;;;;;;7.93;3.88;;;28.10;68.90;;;;;;4673694;30;20224;-89
2023/08/15 19:54:03;;;;;;;5.28;3.90;;;27.50;70.50;;;;;;3861102;28;20243;-82
2023/08/15 19:56:36;;;;;;;5.32;3.58;;;27.50;70.30;;;;;;4689035;30;20228;-84
2023/08/15 19:59:11;;;;;;;6.18;4.00;;;27.50;70.60;;;;;;4703867;30;20225;-82
2023/08/15 20:01:43;;;;;;;5.00;3.75;;;27.40;71.00;;;;;;4704126;30;20192;-82
2023/08/15 20:04:13;;;;;;;5.57;4.13;;;27.40;71.20;;;;;;4688458;30;20321;-82
2023/08/15 20:06:43;;;;;;;7.78;3.90;;;27.30;71.40;;;;;;4688685;30;20298;-84
2023/08/15 20:09:24;;;;;;;5.15;3.95;;;27.20;72.00;;;;;;4688913;30;20228;-84
2023/08/15 20:11:59;;;;;;;6.45;3.95;;;27.10;72.10;;;;;;4675522;30;20510;-83
2023/08/15 20:14:35;;;;;;;5.35;4.00;;;27.20;71.70;;;;;;4688692;30;20252;-83
2023/08/15 20:17:08;;;;;;;7.35;4.05;;;27.20;72.20;;;;;;4688809;30;20462;-84
2023/08/15 20:19:47;;;;;;;8.02;4.40;;;27.20;72.60;;;;;;4688405;30;20204;-84
2023/08/15 20:22:31;;;;;;;5.68;4.00;;;27.00;73.50;;;;;;4777186;24;20669;-84
2023/08/15 20:25:20;;;;;;;6.93;4.47;;;27.00;73.30;;;;;;4654693;30;20220;-82
2023/08/15 20:27:50;;;;;;;7.97;4.30;;;26.90;73.50;;;;;;4665711;30;20229;-83
2023/08/15 20:30:27;;;;;;;7.57;4.55;;;26.90;73.90;;;;;;4655523;30;20676;-82
2023/08/15 20:33:01;;;;;;;7.53;4.35;;;26.80;74.50;;;;;;4654815;30;20569;-83
2023/08/15 20:35:34;;;;;;;6.72;4.50;;;26.80;75.00;;;;;;4654744;30;20481;-83
2023/08/15 20:38:01;;;;;;;8.27;4.78;;;26.70;75.10;;;;;;4654009;30;20264;-83
2023/08/15 20:40:31;;;;;;;6.90;4.43;;;26.60;75.60;;;;;;4653999;30;20205;-83
2023/08/15 20:43:13;;;;;;;8.00;4.50;;;26.60;76.10;;;;;;4653423;30;20229;-83
2023/08/15 20:45:42;;;;;;;6.90;4.53;;;26.60;76.40;;;;;;4654151;30;20598;-83
2023/08/15 20:48:09;;;;;;;7.13;4.82;;;26.50;77.50;;;;;;4653612;30;20254;-82
2023/08/15 20:50:39;;;;;;;7.55;4.80;;;26.40;77.50;;;;;;4668908;30;20224;-82
2023/08/15 20:53:06;;;;;;;6.47;4.82;;;26.30;78.20;;;;;;4654381;30;20426;-78
2023/08/15 20:55:33;;;;;;;12.80;4.75;;;26.30;79.30;;;;;;4653211;30;20205;-78
2023/08/15 20:58:00;;;;;;;7.07;4.63;;;26.20;79.70;;;;;;4653556;30;20225;-79
2023/08/15 21:00:27;;;;;;;6.35;5.07;;;26.10;80.00;;;;;;4653311;30;20665;-79
2023/08/15 21:02:54;;;;;;;9.70;5.38;;;26.00;81.20;;;;;;4653578;30;20410;-80
2023/08/15 21:05:21;;;;;;;6.95;4.82;;;25.90;80.90;;;;;;4653373;30;20296;-79
2023/08/15 21:07:48;;;;;;;8.75;4.80;;;25.80;81.30;;;;;;4653930;30;20256;-86
2023/08/15 21:10:19;;;;;;;10.05;5.85;;;25.80;82.30;;;;;;4653373;30;20213;-80
2023/08/15 21:12:46;;;;;;;8.57;5.15;;;25.70;82.40;;;;;;4653233;30;20237;-80
2023/08/15 21:38:52;;;;;;;8.93;6.13;;;25.20;88.90;;;;;;5262981;24;20239;-82
2023/08/15 21:41:35;;;;;;;8.05;5.82;;;25.10;89.50;;;;;;4719867;30;20199;-82